KPGD/PGD METAR and TAF weather

Enter ICAO airport designator
Station Type Date Time Source
KPGD METAR 2021/06/22 22:53 UTC NOAA

KPGD 222253Z 27010KT 10SM SCT023 SCT029 32/25 A3002 RMK AO2 LTG DSNT E SLP163 T03170250 $


Station Type Date Time Source
KPGD Decoded METAR 2021/06/22 22:53 UTC NOAA

PUNTA GORDA CHARLOTTE COUNTY, FL, United States (KPGD) 26-55N 82-00W 7M
Jun 22, 2021 - 06:53 PM EDT / 2021.06.22 2253 UTC
Wind: from the W (270 degrees) at 12 MPH (10 KT):0
Visibility: 10 mile(s):0
Sky conditions: partly cloudy
Weather: Lightning observed
Temperature: 89.1 F (31.7 C)
Heat index: 101.5 F (38.6 C):1
Dew Point: 77.0 F (25.0 C)
Relative Humidity: 67%
Pressure (altimeter): 30.02 in. Hg (1016 hPa)
ob: KPGD 222253Z 27010KT 10SM SCT023 SCT029 32/25 A3002 RMK AO2 LTG DSNT E SLP163 T03170250
cycle: 23

Station Type Date Time Source
KPGD TAF 2021/06/22 18:48 UTC NOAA

TAF KPGD 221745Z 2218/2318 22013G20KT P6SM VCTS SCT030CB SCT130 BKN250
FM222200 27008KT P6SM VCSH SCT035 SCT150 BKN250
FM230100 VRB03KT P6SM SCT030 SCT150 BKN250
FM231500 24007KT P6SM VCSH SCT030 SCT150 BKN250

Example: see airport list